Time;durP1;ratioP1;P1;durP2;ratioP2;P2;SDS_P1;SDS_P2;PMS_P1;PMS_P2;Temp;Humidity;BMP_temperature;BMP_pressure;BME280_temperature;BME280_humidity;BME280_pressure;Samples;Min_cycle;Max_cycle;Signal;HPM_P1;HPM_P2
2023/06/29 00:06:36;;;;;;;;;;;29.50;32.20;;;;;;21171343;28;19934;-55
2023/06/29 00:16:36;;;;;;;;;;;29.30;33.10;;;;;;21170722;28;19923;-57
2023/06/29 00:26:38;;;;;;;;;;;29.20;33.80;;;;;;21168676;28;20020;-56
2023/06/29 00:36:40;;;;;;;;;;;28.90;33.90;;;;;;21169353;28;19923;-55
2023/06/29 00:46:41;;;;;;;;;;;28.70;34.50;;;;;;21168631;28;19928;-55
2023/06/29 00:56:42;;;;;;;;;;;28.40;34.80;;;;;;21167666;28;19981;-56
2023/06/29 01:06:49;;;;;;;;;;;28.20;35.10;;;;;;21166934;28;20010;-56
2023/06/29 01:16:51;;;;;;;;;;;28.10;35.00;;;;;;21165271;28;19924;-56
2023/06/29 01:26:52;;;;;;;;;;;27.80;35.00;;;;;;21163991;28;19928;-57
2023/06/29 01:36:53;;;;;;;;;;;27.50;35.00;;;;;;21163862;28;19932;-56
2023/06/29 01:46:54;;;;;;;;;;;27.20;35.30;;;;;;21164756;28;19924;-56
2023/06/29 01:56:55;;;;;;;;;;;27.20;35.40;;;;;;21164249;28;20067;-55
2023/06/29 02:06:56;;;;;;;;;;;26.90;35.70;;;;;;21163798;28;19963;-55
2023/06/29 02:16:56;;;;;;;;;;;26.90;35.90;;;;;;21163614;28;19924;-56
2023/06/29 02:26:57;;;;;;;;;;;26.70;36.50;;;;;;21162067;28;19928;-55
2023/06/29 02:36:58;;;;;;;;;;;26.80;36.80;;;;;;21163945;28;19924;-56
2023/06/29 02:46:58;;;;;;;;;;;26.60;36.70;;;;;;21178210;28;19923;-55
2023/06/29 02:56:59;;;;;;;;;;;26.20;37.10;;;;;;21177088;28;19931;-55
2023/06/29 03:07:00;;;;;;;;;;;26.10;37.10;;;;;;21175315;28;19930;-55
2023/06/29 03:17:00;;;;;;;;;;;25.80;37.30;;;;;;21174625;28;19998;-57
2023/06/29 03:27:01;;;;;;;;;;;25.70;37.50;;;;;;21173494;28;20041;-56
2023/06/29 03:37:02;;;;;;;;;;;25.50;37.40;;;;;;21173041;28;20248;-55
2023/06/29 03:47:02;;;;;;;;;;;25.40;37.50;;;;;;21174016;28;19931;-55
2023/06/29 03:57:03;;;;;;;;;;;25.20;37.30;;;;;;21171959;28;19946;-55
2023/06/29 04:07:04;;;;;;;;;;;25.10;37.10;;;;;;21170367;28;19971;-57
2023/06/29 04:17:05;;;;;;;;;;;24.90;37.90;;;;;;21169823;28;20381;-56
2023/06/29 04:27:06;;;;;;;;;;;24.80;37.90;;;;;;21169073;28;19924;-56
2023/06/29 04:37:07;;;;;;;;;;;24.70;38.40;;;;;;21168055;28;19930;-56
2023/06/29 04:47:07;;;;;;;;;;;24.70;38.20;;;;;;21168467;28;19924;-54
2023/06/29 04:57:08;;;;;;;;;;;24.60;38.90;;;;;;21166812;28;20375;-55
2023/06/29 05:07:09;;;;;;;;;;;24.50;39.50;;;;;;21165995;28;19924;-55
2023/06/29 05:17:09;;;;;;;;;;;24.30;40.40;;;;;;21165977;28;19973;-55
2023/06/29 05:27:10;;;;;;;;;;;24.20;40.60;;;;;;21165477;28;19932;-55
2023/06/29 05:37:11;;;;;;;;;;;24.20;40.60;;;;;;21164034;28;20372;-55
2023/06/29 05:47:11;;;;;;;;;;;24.10;40.80;;;;;;21164404;28;19986;-56
2023/06/29 05:57:12;;;;;;;;;;;24.30;41.00;;;;;;21164142;28;19935;-56
2023/06/29 06:07:26;;;;;;;;;;;24.50;41.10;;;;;;21163298;28;20023;-56
2023/06/29 06:17:26;;;;;;;;;;;24.60;41.30;;;;;;21172218;28;19927;-56
2023/06/29 06:27:27;;;;;;;;;;;24.80;41.50;;;;;;21177638;28;20049;-57
2023/06/29 06:37:27;;;;;;;;;;;24.80;40.60;;;;;;21177238;28;19924;-56
2023/06/29 06:47:28;;;;;;;;;;;24.80;40.80;;;;;;21177801;28;20403;-55
2023/06/29 06:57:29;;;;;;;;;;;24.90;41.30;;;;;;21175961;28;19947;-56
2023/06/29 07:07:29;;;;;;;;;;;25.40;41.00;;;;;;21174475;28;19924;-55
2023/06/29 07:17:30;;;;;;;;;;;26.10;39.50;;;;;;21174399;28;19971;-56
2023/06/29 07:27:31;;;;;;;;;;;26.80;37.70;;;;;;21170374;28;20014;-56
2023/06/29 07:37:33;;;;;;;;;;;27.40;37.00;;;;;;21172131;28;20373;-56
2023/06/29 07:47:34;;;;;;;;;;;27.90;36.70;;;;;;21172327;28;20482;-57
2023/06/29 07:57:35;;;;;;;;;;;28.40;37.00;;;;;;21171490;28;19923;-56
2023/06/29 08:07:36;;;;;;;;;;;29.00;38.30;;;;;;21171346;28;19928;-56
2023/06/29 08:17:36;;;;;;;;;;;29.40;38.40;;;;;;21168782;28;19971;-55
2023/06/29 08:27:37;;;;;;;;;;;29.70;38.90;;;;;;21167858;28;20028;-56
2023/06/29 08:37:37;;;;;;;;;;;30.10;38.60;;;;;;21167260;28;20296;-55
2023/06/29 08:47:38;;;;;;;;;;;30.30;38.30;;;;;;21166741;28;20318;-58
2023/06/29 08:57:39;;;;;;;;;;;30.80;37.60;;;;;;21167116;28;19931;-57
2023/06/29 09:07:40;;;;;;;;;;;31.20;37.10;;;;;;21164914;28;19924;-56
2023/06/29 09:17:47;;;;;;;;;;;31.50;36.20;;;;;;21165690;28;20014;-57
2023/06/29 09:28:00;;;;;;;;;;;31.60;35.80;;;;;;21165287;28;20321;-56
2023/06/29 09:38:02;;;;;;;;;;;31.80;35.40;;;;;;21163683;28;19959;-57
2023/06/29 09:48:03;;;;;;;;;;;32.00;34.80;;;;;;21162426;28;20038;-59
2023/06/29 09:58:04;;;;;;;;;;;32.10;33.90;;;;;;21161621;28;20096;-56
2023/06/29 10:08:07;;;;;;;;;;;32.50;31.80;;;;;;21162503;28;19931;-59
2023/06/29 10:18:22;;;;;;;;;;;32.30;30.90;;;;;;21161795;28;20393;-59
2023/06/29 10:28:23;;;;;;;;;;;33.10;26.90;;;;;;21159973;28;19923;-59
2023/06/29 10:38:31;;;;;;;;;;;33.50;26.70;;;;;;21160350;28;20292;-58
2023/06/29 10:48:31;;;;;;;;;;;33.80;25.80;;;;;;21158363;28;20081;-57
2023/06/29 10:58:36;;;;;;;;;;;34.00;25.40;;;;;;21158776;28;19923;-60
2023/06/29 11:08:36;;;;;;;;;;;34.20;24.00;;;;;;21174559;28;20361;-58
2023/06/29 11:18:37;;;;;;;;;;;34.70;23.00;;;;;;21173540;28;19989;-58
2023/06/29 11:28:38;;;;;;;;;;;34.80;22.50;;;;;;21171478;28;19976;-57
2023/06/29 11:38:38;;;;;;;;;;;35.10;22.00;;;;;;21171769;28;19943;-59
2023/06/29 11:48:39;;;;;;;;;;;35.10;21.60;;;;;;21170431;28;20443;-56
2023/06/29 11:58:42;;;;;;;;;;;35.10;22.10;;;;;;21169022;28;20014;-56
2023/06/29 12:08:44;;;;;;;;;;;35.10;21.70;;;;;;21168600;28;19924;-56
2023/06/29 12:18:44;;;;;;;;;;;35.30;20.90;;;;;;21169471;28;19967;-57
2023/06/29 12:28:45;;;;;;;;;;;35.60;19.60;;;;;;21167643;28;19930;-56
2023/06/29 12:38:49;;;;;;;;;;;35.60;20.10;;;;;;21169039;28;19923;-56
2023/06/29 12:48:50;;;;;;;;;;;35.40;20.40;;;;;;21166206;28;20380;-59
2023/06/29 12:58:50;;;;;;;;;;;35.60;20.70;;;;;;21167135;28;19930;-57
2023/06/29 13:08:51;;;;;;;;;;;35.80;21.00;;;;;;21166331;28;20304;-57
2023/06/29 13:18:51;;;;;;;;;;;35.90;21.30;;;;;;21165459;28;19930;-56
2023/06/29 13:28:52;;;;;;;;;;;36.00;20.90;;;;;;21164924;28;19934;-58
2023/06/29 13:38:53;;;;;;;;;;;35.80;20.20;;;;;;21164132;28;19994;-57
2023/06/29 13:48:53;;;;;;;;;;;36.00;20.10;;;;;;21163504;28;20023;-56
2023/06/29 13:58:54;;;;;;;;;;;36.00;19.20;;;;;;21162099;28;19975;-56
2023/06/29 14:08:54;;;;;;;;;;;36.00;19.70;;;;;;21160484;28;20010;-56
2023/06/29 14:18:55;;;;;;;;;;;36.20;19.00;;;;;;21162513;28;19928;-56
2023/06/29 14:28:56;;;;;;;;;;;36.10;20.30;;;;;;21160561;28;19923;-57
2023/06/29 14:38:57;;;;;;;;;;;36.00;21.70;;;;;;21170950;28;20419;-59
2023/06/29 14:48:58;;;;;;;;;;;36.10;20.90;;;;;;21174729;28;19923;-59
2023/06/29 14:58:58;;;;;;;;;;;36.10;20.40;;;;;;21177284;28;20350;-61
2023/06/29 15:08:59;;;;;;;;;;;36.10;21.20;;;;;;21174976;28;19924;-58
2023/06/29 15:19:00;;;;;;;;;;;36.10;20.80;;;;;;21175302;28;19924;-58
2023/06/29 15:29:02;;;;;;;;;;;35.70;22.20;;;;;;21173096;28;19924;-58
2023/06/29 15:39:02;;;;;;;;;;;35.60;26.00;;;;;;21172367;28;19931;-60
2023/06/29 15:49:03;;;;;;;;;;;35.00;26.70;;;;;;21171648;28;20322;-59
2023/06/29 15:59:03;;;;;;;;;;;34.60;27.00;;;;;;21171795;28;19923;-56
2023/06/29 16:09:04;;;;;;;;;;;34.40;27.10;;;;;;21136077;28;20287;-59
2023/06/29 16:19:05;;;;;;;;;;;34.20;27.40;;;;;;21129982;28;19931;-56
2023/06/29 16:29:05;;;;;;;;;;;34.00;28.80;;;;;;21144484;27;19924;-59
2023/06/29 16:39:07;;;;;;;;;;;33.60;28.20;;;;;;21226759;27;20037;-63
2023/06/29 16:49:08;;;;;;;;;;;33.50;28.90;;;;;;21183691;27;19977;-58
2023/06/29 16:59:09;;;;;;;;;;;33.30;30.10;;;;;;21182702;27;20025;-62
2023/06/29 17:09:10;;;;;;;;;;;32.80;28.00;;;;;;21158866;27;20254;-54
2023/06/29 17:19:11;;;;;;;;;;;32.70;29.00;;;;;;21224660;27;19924;-59
2023/06/29 17:29:11;;;;;;;;;;;32.40;28.80;;;;;;21246987;27;20384;-64
2023/06/29 17:39:14;;;;;;;;;;;32.40;28.40;;;;;;21193912;27;20282;-59
2023/06/29 17:49:15;;;;;;;;;;;32.20;28.80;;;;;;21242633;27;19935;-60
2023/06/29 17:59:15;;;;;;;;;;;32.10;27.70;;;;;;21105606;28;20292;-70
2023/06/29 18:09:16;;;;;;;;;;;31.90;27.90;;;;;;21176438;27;19923;-57
2023/06/29 18:19:16;;;;;;;;;;;31.90;27.30;;;;;;21264828;27;19930;-57
2023/06/29 18:29:17;;;;;;;;;;;32.00;26.60;;;;;;21265097;27;19928;-57
2023/06/29 18:39:18;;;;;;;;;;;32.00;26.70;;;;;;21263629;27;20389;-58
2023/06/29 18:49:18;;;;;;;;;;;31.80;26.50;;;;;;21262087;27;19924;-57
2023/06/29 18:59:20;;;;;;;;;;;31.70;26.70;;;;;;21261614;27;20386;-57
2023/06/29 19:09:21;;;;;;;;;;;31.50;26.60;;;;;;21259751;27;20018;-56
2023/06/29 19:19:23;;;;;;;;;;;31.30;27.50;;;;;;21257727;27;19984;-57
2023/06/29 19:29:24;;;;;;;;;;;31.10;27.60;;;;;;21260203;27;20064;-58
2023/06/29 19:39:25;;;;;;;;;;;31.00;30.20;;;;;;21258843;27;19923;-57
2023/06/29 19:49:26;;;;;;;;;;;30.70;31.60;;;;;;21258225;27;19931;-58
2023/06/29 19:59:27;;;;;;;;;;;30.10;32.70;;;;;;21256062;27;19924;-58
2023/06/29 20:09:28;;;;;;;;;;;29.60;33.30;;;;;;21256917;27;19985;-57
2023/06/29 20:19:30;;;;;;;;;;;29.40;33.90;;;;;;21256047;27;19931;-59
2023/06/29 20:29:31;;;;;;;;;;;29.20;35.10;;;;;;21256254;27;19923;-57
2023/06/29 20:39:32;;;;;;;;;;;28.90;36.00;;;;;;21254451;27;19936;-57
2023/06/29 20:49:32;;;;;;;;;;;28.60;36.60;;;;;;21253524;27;19976;-58
2023/06/29 20:59:33;;;;;;;;;;;27.90;37.50;;;;;;21252719;27;19927;-58
2023/06/29 21:09:33;;;;;;;;;;;27.50;37.70;;;;;;21250770;27;19930;-58
2023/06/29 21:19:34;;;;;;;;;;;27.00;37.80;;;;;;21251290;27;19924;-58
2023/06/29 21:29:38;;;;;;;;;;;26.90;37.20;;;;;;21248998;27;19948;-57
2023/06/29 21:39:39;;;;;;;;;;;26.60;36.80;;;;;;21249782;27;19927;-55
2023/06/29 21:49:40;;;;;;;;;;;26.40;36.10;;;;;;21247672;27;19968;-56
2023/06/29 21:59:40;;;;;;;;;;;26.20;36.70;;;;;;21248907;27;20349;-57
2023/06/29 22:09:41;;;;;;;;;;;26.10;37.50;;;;;;21248494;28;19930;-55
2023/06/29 22:19:43;;;;;;;;;;;25.90;38.00;;;;;;21246343;28;19930;-56
2023/06/29 22:29:43;;;;;;;;;;;25.60;39.40;;;;;;21247869;28;19923;-57
2023/06/29 22:39:46;;;;;;;;;;;25.40;42.40;;;;;;21246330;28;20431;-56
2023/06/29 22:49:49;;;;;;;;;;;25.00;43.80;;;;;;21246831;28;19923;-56
2023/06/29 22:59:49;;;;;;;;;;;24.70;44.20;;;;;;21255671;27;19923;-56
2023/06/29 23:09:50;;;;;;;;;;;24.40;44.70;;;;;;21260240;27;19930;-55
2023/06/29 23:19:51;;;;;;;;;;;24.20;45.00;;;;;;21260877;27;20394;-56
2023/06/29 23:29:53;;;;;;;;;;;23.90;45.20;;;;;;21261290;27;19974;-55
2023/06/29 23:39:53;;;;;;;;;;;23.80;45.30;;;;;;21259803;27;19924;-56
2023/06/29 23:49:57;;;;;;;;;;;23.40;45.90;;;;;;21258955;27;19983;-56
2023/06/29 23:59:57;;;;;;;;;;;23.20;46.30;;;;;;21257046;27;19950;-55
